sensor_id;sensor_type;location;lat;lon;timestamp;noise_LAeq;noise_LA_min;noise_LA_max;noise_LA01;noise_LA95
72686;Laerm;61365;52.162;4.500;2022-12-07T00:01:33;48.25;44.41;51.15;;
72686;Laerm;61365;52.162;4.500;2022-12-07T00:04:03;48.09;43.05;51.19;;
72686;Laerm;61365;52.162;4.500;2022-12-07T00:06:42;48.13;43.68;51.51;;
72686;Laerm;61365;52.162;4.500;2022-12-07T00:09:16;48.23;44.13;50.73;;
72686;Laerm;61365;52.162;4.500;2022-12-07T00:11:43;48.18;44.06;51.74;;
72686;Laerm;61365;52.162;4.500;2022-12-07T00:14:14;48.21;43.49;51.25;;
72686;Laerm;61365;52.162;4.500;2022-12-07T00:16:41;48.16;44.71;50.76;;
72686;Laerm;61365;52.162;4.500;2022-12-07T00:19:11;48.27;42.76;50.99;;
72686;Laerm;61365;52.162;4.500;2022-12-07T00:21:38;48.27;44.28;51.05;;
72686;Laerm;61365;52.162;4.500;2022-12-07T00:24:05;48.04;44.43;50.88;;
72686;Laerm;61365;52.162;4.500;2022-12-07T00:26:36;48.16;45.14;50.55;;
72686;Laerm;61365;52.162;4.500;2022-12-07T00:29:13;48.01;43.05;50.69;;
72686;Laerm;61365;52.162;4.500;2022-12-07T00:31:40;48.02;43.98;50.52;;
72686;Laerm;61365;52.162;4.500;2022-12-07T00:34:12;48.10;44.47;50.57;;
72686;Laerm;61365;52.162;4.500;2022-12-07T00:36:39;47.92;42.90;50.74;;
72686;Laerm;61365;52.162;4.500;2022-12-07T00:39:05;48.15;42.76;50.93;;
72686;Laerm;61365;52.162;4.500;2022-12-07T00:41:32;48.30;45.14;50.56;;
72686;Laerm;61365;52.162;4.500;2022-12-07T00:43:58;48.30;44.56;50.75;;
72686;Laerm;61365;52.162;4.500;2022-12-07T00:46:25;48.06;45.13;50.61;;
72686;Laerm;61365;52.162;4.500;2022-12-07T00:48:53;48.16;44.45;50.59;;
72686;Laerm;61365;52.162;4.500;2022-12-07T00:51:23;48.05;43.42;50.76;;
72686;Laerm;61365;52.162;4.500;2022-12-07T00:53:50;48.11;44.72;50.68;;
72686;Laerm;61365;52.162;4.500;2022-12-07T00:56:26;47.85;42.98;51.11;;
72686;Laerm;61365;52.162;4.500;2022-12-07T00:58:59;47.76;43.66;50.51;;
72686;Laerm;61365;52.162;4.500;2022-12-07T01:01:29;48.01;44.66;50.84;;
72686;Laerm;61365;52.162;4.500;2022-12-07T01:03:56;47.94;44.00;51.09;;
72686;Laerm;61365;52.162;4.500;2022-12-07T01:06:25;48.23;43.35;50.94;;
72686;Laerm;61365;52.162;4.500;2022-12-07T01:08:52;48.13;44.13;50.81;;
72686;Laerm;61365;52.162;4.500;2022-12-07T01:11:23;48.19;44.59;50.94;;
72686;Laerm;61365;52.162;4.500;2022-12-07T01:13:53;48.03;44.60;50.83;;
72686;Laerm;61365;52.162;4.500;2022-12-07T01:16:21;48.09;44.42;50.74;;
72686;Laerm;61365;52.162;4.500;2022-12-07T01:18:51;48.11;43.15;50.74;;
72686;Laerm;61365;52.162;4.500;2022-12-07T01:21:28;48.32;44.57;50.83;;
72686;Laerm;61365;52.162;4.500;2022-12-07T01:23:57;48.32;44.89;50.63;;
72686;Laerm;61365;52.162;4.500;2022-12-07T01:26:25;48.18;43.71;50.87;;
72686;Laerm;61365;52.162;4.500;2022-12-07T01:28:52;48.12;44.10;50.71;;
72686;Laerm;61365;52.162;4.500;2022-12-07T01:31:24;48.16;43.79;50.57;;
72686;Laerm;61365;52.162;4.500;2022-12-07T01:33:55;48.17;44.38;50.63;;
72686;Laerm;61365;52.162;4.500;2022-12-07T01:36:31;48.15;43.66;50.66;;
72686;Laerm;61365;52.162;4.500;2022-12-07T01:39:02;47.98;43.20;51.69;;
72686;Laerm;61365;52.162;4.500;2022-12-07T01:41:32;48.18;44.61;50.74;;
72686;Laerm;61365;52.162;4.500;2022-12-07T01:44:24;48.29;44.89;51.18;;
72686;Laerm;61365;52.162;4.500;2022-12-07T01:46:56;48.33;44.38;50.87;;
72686;Laerm;61365;52.162;4.500;2022-12-07T01:49:35;48.38;44.47;50.88;;
72686;Laerm;61365;52.162;4.500;2022-12-07T01:52:30;48.33;44.76;51.42;;
72686;Laerm;61365;52.162;4.500;2022-12-07T01:55:04;48.05;44.64;51.02;;
72686;Laerm;61365;52.162;4.500;2022-12-07T01:57:34;47.94;42.99;50.34;;
72686;Laerm;61365;52.162;4.500;2022-12-07T02:00:06;47.85;43.93;50.35;;
72686;Laerm;61365;52.162;4.500;2022-12-07T02:02:38;47.76;41.16;50.11;;
72686;Laerm;61365;52.162;4.500;2022-12-07T02:05:06;47.80;44.23;50.29;;
72686;Laerm;61365;52.162;4.500;2022-12-07T02:07:36;47.82;41.36;50.40;;
72686;Laerm;61365;52.162;4.500;2022-12-07T02:10:22;47.89;43.38;50.26;;
72686;Laerm;61365;52.162;4.500;2022-12-07T02:13:02;47.68;43.48;50.43;;
72686;Laerm;61365;52.162;4.500;2022-12-07T02:15:57;47.97;44.24;50.33;;
72686;Laerm;61365;52.162;4.500;2022-12-07T02:27:47;47.83;43.98;50.12;;
72686;Laerm;61365;52.162;4.500;2022-12-07T02:30:21;47.79;44.40;50.28;;
72686;Laerm;61365;52.162;4.500;2022-12-07T02:33:00;47.65;44.13;50.35;;
72686;Laerm;61365;52.162;4.500;2022-12-07T02:35:46;47.86;44.38;50.19;;
72686;Laerm;61365;52.162;4.500;2022-12-07T02:41:33;47.77;43.61;50.31;;
72686;Laerm;61365;52.162;4.500;2022-12-07T02:44:10;47.87;41.88;50.57;;
72686;Laerm;61365;52.162;4.500;2022-12-07T02:47:04;47.83;44.34;50.38;;
72686;Laerm;61365;52.162;4.500;2022-12-07T02:49:33;47.84;44.02;50.31;;
72686;Laerm;61365;52.162;4.500;2022-12-07T02:52:00;47.85;43.74;50.25;;
72686;Laerm;61365;52.162;4.500;2022-12-07T02:54:26;47.85;44.19;50.62;;
72686;Laerm;61365;52.162;4.500;2022-12-07T03:00:02;47.51;44.40;49.93;;
72686;Laerm;61365;52.162;4.500;2022-12-07T03:02:53;47.81;44.20;50.27;;
72686;Laerm;61365;52.162;4.500;2022-12-07T03:05:54;47.62;44.10;50.37;;
72686;Laerm;61365;52.162;4.500;2022-12-07T03:08:37;47.96;44.21;50.46;;
72686;Laerm;61365;52.162;4.500;2022-12-07T03:11:30;47.77;42.99;50.23;;
72686;Laerm;61365;52.162;4.500;2022-12-07T03:14:17;47.77;43.07;50.73;;
72686;Laerm;61365;52.162;4.500;2022-12-07T03:17:13;48.29;44.17;50.96;;
72686;Laerm;61365;52.162;4.500;2022-12-07T03:19:44;48.17;44.42;50.64;;
72686;Laerm;61365;52.162;4.500;2022-12-07T03:22:13;48.24;43.37;50.81;;
72686;Laerm;61365;52.162;4.500;2022-12-07T03:24:55;47.98;43.58;51.14;;
72686;Laerm;61365;52.162;4.500;2022-12-07T03:27:27;47.79;43.84;51.14;;
72686;Laerm;61365;52.162;4.500;2022-12-07T03:30:06;47.95;43.96;50.58;;
72686;Laerm;61365;52.162;4.500;2022-12-07T03:32:44;48.22;44.89;51.05;;
72686;Laerm;61365;52.162;4.500;2022-12-07T03:35:27;47.92;44.33;50.78;;
72686;Laerm;61365;52.162;4.500;2022-12-07T03:43:01;48.05;44.63;50.57;;
72686;Laerm;61365;52.162;4.500;2022-12-07T03:45:43;48.02;44.78;50.78;;
72686;Laerm;61365;52.162;4.500;2022-12-07T03:48:22;47.76;44.07;50.40;;
72686;Laerm;61365;52.162;4.500;2022-12-07T03:51:08;47.60;42.76;50.86;;
72686;Laerm;61365;52.162;4.500;2022-12-07T03:53:53;47.98;44.97;50.58;;
72686;Laerm;61365;52.162;4.500;2022-12-07T03:56:22;47.86;44.61;50.60;;
72686;Laerm;61365;52.162;4.500;2022-12-07T03:58:50;47.95;43.88;50.75;;
72686;Laerm;61365;52.162;4.500;2022-12-07T04:01:18;47.96;44.36;50.30;;
72686;Laerm;61365;52.162;4.500;2022-12-07T04:03:45;48.01;44.37;50.72;;
72686;Laerm;61365;52.162;4.500;2022-12-07T04:06:12;48.09;42.50;50.52;;
72686;Laerm;61365;52.162;4.500;2022-12-07T04:08:38;47.84;44.06;51.26;;
72686;Laerm;61365;52.162;4.500;2022-12-07T04:11:04;47.88;44.36;50.42;;
72686;Laerm;61365;52.162;4.500;2022-12-07T04:13:31;47.46;43.51;50.12;;
72686;Laerm;61365;52.162;4.500;2022-12-07T04:16:17;47.83;43.92;50.57;;
72686;Laerm;61365;52.162;4.500;2022-12-07T04:18:43;47.75;43.45;50.81;;
72686;Laerm;61365;52.162;4.500;2022-12-07T04:21:10;48.22;44.04;51.05;;
72686;Laerm;61365;52.162;4.500;2022-12-07T04:23:36;48.38;41.27;51.28;;
72686;Laerm;61365;52.162;4.500;2022-12-07T04:26:05;48.45;43.92;51.47;;
72686;Laerm;61365;52.162;4.500;2022-12-07T04:28:32;48.19;44.92;51.05;;
72686;Laerm;61365;52.162;4.500;2022-12-07T04:30:58;48.28;44.51;50.97;;
72686;Laerm;61365;52.162;4.500;2022-12-07T04:33:24;48.06;43.97;51.01;;
72686;Laerm;61365;52.162;4.500;2022-12-07T04:35:50;47.78;44.19;50.62;;
72686;Laerm;61365;52.162;4.500;2022-12-07T04:38:17;47.71;43.96;50.52;;
72686;Laerm;61365;52.162;4.500;2022-12-07T04:40:43;47.73;44.17;50.75;;
72686;Laerm;61365;52.162;4.500;2022-12-07T04:43:09;47.73;43.71;51.60;;
72686;Laerm;61365;52.162;4.500;2022-12-07T04:45:36;48.21;45.08;50.69;;
72686;Laerm;61365;52.162;4.500;2022-12-07T04:48:02;48.24;42.65;50.86;;
72686;Laerm;61365;52.162;4.500;2022-12-07T04:50:28;48.15;42.44;50.86;;
72686;Laerm;61365;52.162;4.500;2022-12-07T04:52:55;48.18;41.42;50.87;;
72686;Laerm;61365;52.162;4.500;2022-12-07T04:55:21;48.13;43.67;51.61;;
72686;Laerm;61365;52.162;4.500;2022-12-07T04:57:47;48.28;41.84;50.95;;
72686;Laerm;61365;52.162;4.500;2022-12-07T05:00:14;48.00;43.91;50.78;;
72686;Laerm;61365;52.162;4.500;2022-12-07T05:02:40;47.84;40.87;50.57;;
72686;Laerm;61365;52.162;4.500;2022-12-07T05:05:07;47.88;44.11;51.14;;
72686;Laerm;61365;52.162;4.500;2022-12-07T05:07:33;48.32;44.27;50.94;;
72686;Laerm;61365;52.162;4.500;2022-12-07T05:10:00;48.31;44.74;50.79;;
72686;Laerm;61365;52.162;4.500;2022-12-07T05:12:26;48.17;44.22;51.28;;
72686;Laerm;61365;52.162;4.500;2022-12-07T05:14:52;48.29;41.87;50.99;;
72686;Laerm;61365;52.162;4.500;2022-12-07T05:17:18;48.16;44.69;51.18;;
72686;Laerm;61365;52.162;4.500;2022-12-07T05:19:45;48.27;42.03;50.66;;
72686;Laerm;61365;52.162;4.500;2022-12-07T05:22:11;48.34;45.17;50.98;;
72686;Laerm;61365;52.162;4.500;2022-12-07T05:24:39;48.03;44.58;50.60;;
72686;Laerm;61365;52.162;4.500;2022-12-07T05:27:05;47.98;42.71;50.66;;
72686;Laerm;61365;52.162;4.500;2022-12-07T05:29:32;47.80;43.69;50.52;;
72686;Laerm;61365;52.162;4.500;2022-12-07T05:31:58;47.80;43.64;51.11;;
72686;Laerm;61365;52.162;4.500;2022-12-07T05:34:24;47.98;43.20;50.53;;
72686;Laerm;61365;52.162;4.500;2022-12-07T05:36:51;47.75;43.26;50.87;;
72686;Laerm;61365;52.162;4.500;2022-12-07T05:39:17;47.86;41.80;50.74;;
72686;Laerm;61365;52.162;4.500;2022-12-07T05:41:43;47.96;43.45;50.61;;
72686;Laerm;61365;52.162;4.500;2022-12-07T05:44:28;47.93;43.40;50.76;;
72686;Laerm;61365;52.162;4.500;2022-12-07T05:46:54;48.11;44.09;50.84;;
72686;Laerm;61365;52.162;4.500;2022-12-07T05:49:21;48.06;44.29;50.59;;
72686;Laerm;61365;52.162;4.500;2022-12-07T05:51:47;47.96;41.83;50.84;;
72686;Laerm;61365;52.162;4.500;2022-12-07T05:54:13;48.02;44.21;51.00;;
72686;Laerm;61365;52.162;4.500;2022-12-07T05:56:40;48.02;44.53;50.42;;
72686;Laerm;61365;52.162;4.500;2022-12-07T05:59:08;47.87;43.94;50.43;;
72686;Laerm;61365;52.162;4.500;2022-12-07T06:01:55;47.86;44.28;50.45;;
72686;Laerm;61365;52.162;4.500;2022-12-07T06:04:23;48.00;44.02;50.82;;
72686;Laerm;61365;52.162;4.500;2022-12-07T06:06:50;48.00;43.90;50.54;;
72686;Laerm;61365;52.162;4.500;2022-12-07T06:09:19;47.89;43.83;50.23;;
72686;Laerm;61365;52.162;4.500;2022-12-07T06:11:46;47.79;44.13;50.93;;
72686;Laerm;61365;52.162;4.500;2022-12-07T06:14:31;47.68;43.34;50.39;;
72686;Laerm;61365;52.162;4.500;2022-12-07T06:16:58;48.09;43.90;50.37;;
72686;Laerm;61365;52.162;4.500;2022-12-07T06:19:25;47.94;43.96;50.37;;
72686;Laerm;61365;52.162;4.500;2022-12-07T06:21:52;47.94;44.01;50.86;;
72686;Laerm;61365;52.162;4.500;2022-12-07T06:24:18;47.93;43.54;50.56;;
72686;Laerm;61365;52.162;4.500;2022-12-07T06:26:45;48.01;43.49;50.59;;
72686;Laerm;61365;52.162;4.500;2022-12-07T06:29:13;47.89;43.00;50.83;;
72686;Laerm;61365;52.162;4.500;2022-12-07T06:31:40;47.94;43.18;50.78;;
72686;Laerm;61365;52.162;4.500;2022-12-07T06:34:14;47.90;43.32;51.04;;
72686;Laerm;61365;52.162;4.500;2022-12-07T06:36:41;48.02;43.97;50.65;;
72686;Laerm;61365;52.162;4.500;2022-12-07T06:39:08;47.95;43.38;50.93;;
72686;Laerm;61365;52.162;4.500;2022-12-07T06:41:36;48.16;45.09;51.01;;
72686;Laerm;61365;52.162;4.500;2022-12-07T06:44:05;48.05;44.09;50.39;;
72686;Laerm;61365;52.162;4.500;2022-12-07T06:46:32;47.97;43.27;50.61;;
72686;Laerm;61365;52.162;4.500;2022-12-07T06:49:01;48.04;40.08;50.67;;
72686;Laerm;61365;52.162;4.500;2022-12-07T06:51:28;48.05;43.34;50.47;;
72686;Laerm;61365;52.162;4.500;2022-12-07T06:53:55;48.09;44.37;50.84;;
72686;Laerm;61365;52.162;4.500;2022-12-07T06:56:24;48.13;44.58;50.62;;
72686;Laerm;61365;52.162;4.500;2022-12-07T06:58:50;48.11;45.02;50.63;;
72686;Laerm;61365;52.162;4.500;2022-12-07T07:01:18;48.11;44.75;50.58;;
72686;Laerm;61365;52.162;4.500;2022-12-07T07:03:46;47.98;42.24;50.62;;
72686;Laerm;61365;52.162;4.500;2022-12-07T07:06:13;48.01;44.80;50.53;;
72686;Laerm;61365;52.162;4.500;2022-12-07T07:08:40;47.93;44.15;50.45;;
72686;Laerm;61365;52.162;4.500;2022-12-07T07:11:08;47.92;44.02;50.96;;
72686;Laerm;61365;52.162;4.500;2022-12-07T07:13:35;48.06;44.85;51.00;;
72686;Laerm;61365;52.162;4.500;2022-12-07T07:16:02;48.02;44.04;50.61;;
72686;Laerm;61365;52.162;4.500;2022-12-07T07:18:29;48.08;44.38;50.58;;
72686;Laerm;61365;52.162;4.500;2022-12-07T07:20:55;47.90;44.77;50.72;;
72686;Laerm;61365;52.162;4.500;2022-12-07T07:23:22;47.83;43.83;50.46;;
72686;Laerm;61365;52.162;4.500;2022-12-07T07:25:48;47.96;44.58;50.35;;
72686;Laerm;61365;52.162;4.500;2022-12-07T07:28:16;47.74;44.31;50.88;;
72686;Laerm;61365;52.162;4.500;2022-12-07T07:30:43;47.80;44.31;50.13;;
72686;Laerm;61365;52.162;4.500;2022-12-07T07:33:10;48.03;44.00;50.22;;
72686;Laerm;61365;52.162;4.500;2022-12-07T07:35:37;48.00;43.75;50.70;;
72686;Laerm;61365;52.162;4.500;2022-12-07T07:38:05;48.20;44.21;50.82;;
72686;Laerm;61365;52.162;4.500;2022-12-07T07:40:32;48.09;44.66;50.61;;
72686;Laerm;61365;52.162;4.500;2022-12-07T07:42:58;47.93;44.01;50.40;;
72686;Laerm;61365;52.162;4.500;2022-12-07T07:45:26;47.61;42.64;50.43;;
72686;Laerm;61365;52.162;4.500;2022-12-07T07:47:53;47.93;43.55;50.76;;
72686;Laerm;61365;52.162;4.500;2022-12-07T07:50:21;47.86;43.01;50.56;;
72686;Laerm;61365;52.162;4.500;2022-12-07T07:52:47;47.82;42.63;50.21;;
72686;Laerm;61365;52.162;4.500;2022-12-07T07:55:14;47.95;44.84;50.62;;
72686;Laerm;61365;52.162;4.500;2022-12-07T07:57:41;47.85;41.15;50.89;;
72686;Laerm;61365;52.162;4.500;2022-12-07T08:00:11;48.05;44.74;50.58;;
72686;Laerm;61365;52.162;4.500;2022-12-07T08:02:39;47.89;43.47;50.53;;
72686;Laerm;61365;52.162;4.500;2022-12-07T08:05:06;47.55;43.07;50.35;;
72686;Laerm;61365;52.162;4.500;2022-12-07T08:07:33;47.98;44.14;50.53;;
72686;Laerm;61365;52.162;4.500;2022-12-07T08:09:59;48.05;43.55;50.62;;
72686;Laerm;61365;52.162;4.500;2022-12-07T08:12:25;48.05;44.31;51.16;;
72686;Laerm;61365;52.162;4.500;2022-12-07T08:14:52;48.13;44.79;50.56;;
72686;Laerm;61365;52.162;4.500;2022-12-07T08:17:19;48.02;44.24;50.93;;
72686;Laerm;61365;52.162;4.500;2022-12-07T08:19:45;48.18;43.40;51.11;;
72686;Laerm;61365;52.162;4.500;2022-12-07T08:22:11;48.18;44.86;50.72;;
72686;Laerm;61365;52.162;4.500;2022-12-07T08:24:38;48.20;44.32;50.84;;
72686;Laerm;61365;52.162;4.500;2022-12-07T08:27:04;48.11;43.18;50.89;;
72686;Laerm;61365;52.162;4.500;2022-12-07T08:29:30;48.35;44.31;51.05;;
72686;Laerm;61365;52.162;4.500;2022-12-07T08:31:57;48.11;44.22;51.35;;
72686;Laerm;61365;52.162;4.500;2022-12-07T08:34:23;48.27;44.06;51.07;;
72686;Laerm;61365;52.162;4.500;2022-12-07T08:36:50;48.35;43.81;51.32;;
72686;Laerm;61365;52.162;4.500;2022-12-07T08:39:16;48.17;43.19;50.87;;
72686;Laerm;61365;52.162;4.500;2022-12-07T08:41:43;48.28;44.50;50.80;;
72686;Laerm;61365;52.162;4.500;2022-12-07T08:44:09;48.30;43.64;51.04;;
72686;Laerm;61365;52.162;4.500;2022-12-07T08:46:41;48.19;42.48;50.85;;
72686;Laerm;61365;52.162;4.500;2022-12-07T08:49:27;48.15;44.18;51.41;;
72686;Laerm;61365;52.162;4.500;2022-12-07T08:51:56;48.11;43.63;50.61;;
72686;Laerm;61365;52.162;4.500;2022-12-07T08:54:23;48.03;42.74;51.41;;
72686;Laerm;61365;52.162;4.500;2022-12-07T08:56:50;47.98;43.47;50.81;;
72686;Laerm;61365;52.162;4.500;2022-12-07T08:59:20;47.97;44.29;51.05;;
72686;Laerm;61365;52.162;4.500;2022-12-07T09:01:46;48.30;44.00;51.04;;
72686;Laerm;61365;52.162;4.500;2022-12-07T09:04:13;48.19;44.76;51.00;;
72686;Laerm;61365;52.162;4.500;2022-12-07T09:06:40;48.17;44.12;50.83;;
72686;Laerm;61365;52.162;4.500;2022-12-07T09:09:09;48.14;42.75;51.27;;
72686;Laerm;61365;52.162;4.500;2022-12-07T09:11:36;48.06;42.32;50.72;;
72686;Laerm;61365;52.162;4.500;2022-12-07T09:14:02;47.94;44.31;50.57;;
72686;Laerm;61365;52.162;4.500;2022-12-07T09:16:29;47.70;43.33;50.61;;
72686;Laerm;61365;52.162;4.500;2022-12-07T09:18:55;47.78;43.47;50.55;;
72686;Laerm;61365;52.162;4.500;2022-12-07T09:21:22;47.96;42.91;50.88;;
72686;Laerm;61365;52.162;4.500;2022-12-07T09:23:48;48.15;44.59;50.87;;
72686;Laerm;61365;52.162;4.500;2022-12-07T09:26:15;48.06;44.38;50.79;;
72686;Laerm;61365;52.162;4.500;2022-12-07T09:28:41;48.10;43.82;50.97;;
72686;Laerm;61365;52.162;4.500;2022-12-07T09:31:07;47.74;43.42;50.55;;
72686;Laerm;61365;52.162;4.500;2022-12-07T09:33:34;48.33;44.57;50.86;;
72686;Laerm;61365;52.162;4.500;2022-12-07T09:36:00;48.29;44.66;51.04;;
72686;Laerm;61365;52.162;4.500;2022-12-07T09:38:26;48.11;44.54;51.10;;
72686;Laerm;61365;52.162;4.500;2022-12-07T09:40:55;48.08;43.93;50.45;;
72686;Laerm;61365;52.162;4.500;2022-12-07T09:43:25;48.15;43.64;50.62;;
72686;Laerm;61365;52.162;4.500;2022-12-07T09:45:54;47.97;42.96;51.19;;
72686;Laerm;61365;52.162;4.500;2022-12-07T09:48:36;48.17;44.44;50.75;;
72686;Laerm;61365;52.162;4.500;2022-12-07T09:51:21;48.20;44.44;51.03;;
72686;Laerm;61365;52.162;4.500;2022-12-07T09:53:51;48.26;44.54;50.82;;
72686;Laerm;61365;52.162;4.500;2022-12-07T09:56:19;48.30;44.96;51.21;;
72686;Laerm;61365;52.162;4.500;2022-12-07T09:58:47;48.29;43.07;50.84;;
72686;Laerm;61365;52.162;4.500;2022-12-07T10:01:21;48.20;43.85;50.79;;
72686;Laerm;61365;52.162;4.500;2022-12-07T10:03:56;48.37;44.33;51.44;;
72686;Laerm;61365;52.162;4.500;2022-12-07T10:06:25;48.33;43.22;51.11;;
72686;Laerm;61365;52.162;4.500;2022-12-07T10:08:51;48.49;44.03;50.99;;
72686;Laerm;61365;52.162;4.500;2022-12-07T10:11:17;48.38;44.50;52.02;;
72686;Laerm;61365;52.162;4.500;2022-12-07T10:13:48;48.51;44.66;51.26;;
72686;Laerm;61365;52.162;4.500;2022-12-07T10:18:52;48.44;44.18;51.96;;
72686;Laerm;61365;52.162;4.500;2022-12-07T10:21:22;48.61;43.93;51.46;;
72686;Laerm;61365;52.162;4.500;2022-12-07T10:26:51;48.54;43.59;51.45;;
72686;Laerm;61365;52.162;4.500;2022-12-07T10:32:02;48.28;43.27;50.88;;
72686;Laerm;61365;52.162;4.500;2022-12-07T10:34:34;48.40;44.58;51.40;;
72686;Laerm;61365;52.162;4.500;2022-12-07T10:37:14;48.37;45.18;50.96;;
72686;Laerm;61365;52.162;4.500;2022-12-07T10:39:46;48.29;43.40;50.74;;
72686;Laerm;61365;52.162;4.500;2022-12-07T10:42:26;48.08;44.51;50.79;;
72686;Laerm;61365;52.162;4.500;2022-12-07T10:45:16;48.10;44.33;50.69;;
72686;Laerm;61365;52.162;4.500;2022-12-07T10:51:27;48.09;43.81;50.74;;
72686;Laerm;61365;52.162;4.500;2022-12-07T10:55:05;48.32;42.35;50.76;;
72686;Laerm;61365;52.162;4.500;2022-12-07T11:00:19;48.17;44.04;50.86;;
72686;Laerm;61365;52.162;4.500;2022-12-07T11:12:00;48.33;40.36;51.23;;
72686;Laerm;61365;52.162;4.500;2022-12-07T11:15:03;48.56;44.90;51.17;;
72686;Laerm;61365;52.162;4.500;2022-12-07T11:18:03;48.30;41.27;51.13;;
72686;Laerm;61365;52.162;4.500;2022-12-07T11:23:36;48.27;44.01;51.08;;
72686;Laerm;61365;52.162;4.500;2022-12-07T11:26:41;48.41;42.95;51.24;;
72686;Laerm;61365;52.162;4.500;2022-12-07T11:35:52;48.65;44.27;51.43;;
72686;Laerm;61365;52.162;4.500;2022-12-07T11:38:37;48.50;43.29;51.41;;
72686;Laerm;61365;52.162;4.500;2022-12-07T11:41:05;48.63;43.78;51.68;;
72686;Laerm;61365;52.162;4.500;2022-12-07T11:44:07;48.27;43.18;51.41;;
72686;Laerm;61365;52.162;4.500;2022-12-07T11:46:47;48.22;42.66;51.44;;
72686;Laerm;61365;52.162;4.500;2022-12-07T11:49:37;48.36;43.95;51.14;;
72686;Laerm;61365;52.162;4.500;2022-12-07T11:52:26;48.30;42.81;51.59;;
72686;Laerm;61365;52.162;4.500;2022-12-07T11:55:00;48.41;44.64;51.50;;
72686;Laerm;61365;52.162;4.500;2022-12-07T11:57:44;48.24;43.86;51.16;;
72686;Laerm;61365;52.162;4.500;2022-12-07T12:00:16;48.21;43.96;51.11;;
72686;Laerm;61365;52.162;4.500;2022-12-07T12:03:30;48.17;42.90;50.89;;
72686;Laerm;61365;52.162;4.500;2022-12-07T12:05:59;48.26;44.22;51.04;;
72686;Laerm;61365;52.162;4.500;2022-12-07T12:08:40;48.13;43.39;51.07;;
72686;Laerm;61365;52.162;4.500;2022-12-07T12:17:13;48.17;44.81;51.06;;
72686;Laerm;61365;52.162;4.500;2022-12-07T12:20:18;48.08;42.49;50.81;;
72686;Laerm;61365;52.162;4.500;2022-12-07T12:22:55;48.18;44.41;51.09;;
72686;Laerm;61365;52.162;4.500;2022-12-07T12:25:37;48.01;43.26;51.33;;
72686;Laerm;61365;52.162;4.500;2022-12-07T12:28:05;47.85;43.76;51.28;;
72686;Laerm;61365;52.162;4.500;2022-12-07T12:30:37;48.14;43.46;50.94;;
72686;Laerm;61365;52.162;4.500;2022-12-07T12:33:28;48.29;44.41;51.17;;
72686;Laerm;61365;52.162;4.500;2022-12-07T12:47:10;48.35;44.29;51.40;;
72686;Laerm;61365;52.162;4.500;2022-12-07T12:50:35;48.19;43.54;51.22;;
72686;Laerm;61365;52.162;4.500;2022-12-07T12:53:24;48.30;44.44;50.66;;
72686;Laerm;61365;52.162;4.500;2022-12-07T12:59:31;48.26;43.88;51.52;;
72686;Laerm;61365;52.162;4.500;2022-12-07T13:23:39;48.35;44.12;51.27;;
72686;Laerm;61365;52.162;4.500;2022-12-07T13:29:20;48.36;42.65;51.30;;
72686;Laerm;61365;52.162;4.500;2022-12-07T13:31:50;48.50;43.93;51.19;;
72686;Laerm;61365;52.162;4.500;2022-12-07T13:34:38;48.21;42.53;51.12;;
72686;Laerm;61365;52.162;4.500;2022-12-07T13:37:32;48.25;44.45;51.02;;
72686;Laerm;61365;52.162;4.500;2022-12-07T13:40:17;48.30;42.73;51.21;;
72686;Laerm;61365;52.162;4.500;2022-12-07T13:42:44;48.26;43.93;51.40;;
72686;Laerm;61365;52.162;4.500;2022-12-07T13:45:26;48.60;43.40;51.24;;
72686;Laerm;61365;52.162;4.500;2022-12-07T13:48:49;48.58;44.27;51.34;;
72686;Laerm;61365;52.162;4.500;2022-12-07T13:51:36;48.44;42.24;51.18;;
72686;Laerm;61365;52.162;4.500;2022-12-07T13:54:11;48.24;43.92;51.18;;
72686;Laerm;61365;52.162;4.500;2022-12-07T13:56:39;48.34;41.00;51.34;;
72686;Laerm;61365;52.162;4.500;2022-12-07T13:59:17;48.11;43.85;51.58;;
72686;Laerm;61365;52.162;4.500;2022-12-07T14:01:47;48.10;43.61;51.51;;
72686;Laerm;61365;52.162;4.500;2022-12-07T14:04:35;48.40;43.64;51.84;;
72686;Laerm;61365;52.162;4.500;2022-12-07T14:07:28;48.37;44.29;51.39;;
72686;Laerm;61365;52.162;4.500;2022-12-07T14:12:23;48.45;44.38;51.27;;
72686;Laerm;61365;52.162;4.500;2022-12-07T14:14:51;48.45;44.78;51.38;;
72686;Laerm;61365;52.162;4.500;2022-12-07T14:17:24;48.14;44.43;50.94;;
72686;Laerm;61365;52.162;4.500;2022-12-07T14:20:00;48.15;43.71;50.96;;
72686;Laerm;61365;52.162;4.500;2022-12-07T14:22:38;48.10;43.92;51.08;;
72686;Laerm;61365;52.162;4.500;2022-12-07T14:25:24;48.29;44.54;50.76;;
72686;Laerm;61365;52.162;4.500;2022-12-07T14:27:57;48.33;43.97;50.88;;
72686;Laerm;61365;52.162;4.500;2022-12-07T14:30:28;48.21;44.41;50.66;;
72686;Laerm;61365;52.162;4.500;2022-12-07T14:33:02;48.16;41.81;50.90;;
72686;Laerm;61365;52.162;4.500;2022-12-07T14:35:31;48.17;44.23;50.94;;
72686;Laerm;61365;52.162;4.500;2022-12-07T14:38:00;47.99;42.04;50.85;;
72686;Laerm;61365;52.162;4.500;2022-12-07T14:40:29;47.96;42.89;50.86;;
72686;Laerm;61365;52.162;4.500;2022-12-07T14:43:02;47.85;42.24;51.24;;
72686;Laerm;61365;52.162;4.500;2022-12-07T14:45:31;48.06;43.44;51.42;;
72686;Laerm;61365;52.162;4.500;2022-12-07T14:47:57;47.59;42.67;50.82;;
72686;Laerm;61365;52.162;4.500;2022-12-07T14:50:23;48.15;43.55;50.93;;
72686;Laerm;61365;52.162;4.500;2022-12-07T14:52:56;48.26;44.31;50.85;;
72686;Laerm;61365;52.162;4.500;2022-12-07T14:55:30;48.40;43.81;51.26;;
72686;Laerm;61365;52.162;4.500;2022-12-07T14:57:57;48.37;43.94;51.20;;
72686;Laerm;61365;52.162;4.500;2022-12-07T15:00:27;48.57;44.40;50.95;;
72686;Laerm;61365;52.162;4.500;2022-12-07T15:02:54;47.91;42.42;50.98;;
72686;Laerm;61365;52.162;4.500;2022-12-07T15:05:21;48.38;43.88;51.06;;
72686;Laerm;61365;52.162;4.500;2022-12-07T15:07:49;48.24;43.77;51.10;;
72686;Laerm;61365;52.162;4.500;2022-12-07T15:10:26;48.50;44.37;51.04;;
72686;Laerm;61365;52.162;4.500;2022-12-07T15:13:02;48.64;44.94;51.34;;
72686;Laerm;61365;52.162;4.500;2022-12-07T15:15:50;48.30;43.05;51.14;;
72686;Laerm;61365;52.162;4.500;2022-12-07T15:18:17;48.49;44.07;51.04;;
72686;Laerm;61365;52.162;4.500;2022-12-07T15:20:45;48.57;44.12;51.74;;
72686;Laerm;61365;52.162;4.500;2022-12-07T15:23:12;48.69;41.95;51.62;;
72686;Laerm;61365;52.162;4.500;2022-12-07T15:25:45;48.48;43.66;51.53;;
72686;Laerm;61365;52.162;4.500;2022-12-07T15:28:12;48.17;43.85;51.28;;
72686;Laerm;61365;52.162;4.500;2022-12-07T15:30:41;48.17;42.58;51.13;;
72686;Laerm;61365;52.162;4.500;2022-12-07T15:33:12;48.47;43.08;51.55;;
72686;Laerm;61365;52.162;4.500;2022-12-07T15:35:43;48.37;43.43;51.33;;
72686;Laerm;61365;52.162;4.500;2022-12-07T15:38:11;48.29;40.34;51.36;;
72686;Laerm;61365;52.162;4.500;2022-12-07T15:40:38;46.39;39.13;54.76;;
72686;Laerm;61365;52.162;4.500;2022-12-07T15:43:05;45.84;43.48;47.63;;
72686;Laerm;61365;52.162;4.500;2022-12-07T15:45:51;45.93;43.58;47.52;;
72686;Laerm;61365;52.162;4.500;2022-12-07T15:48:17;45.99;42.89;47.89;;
72686;Laerm;61365;52.162;4.500;2022-12-07T15:50:44;45.89;43.27;47.64;;
72686;Laerm;61365;52.162;4.500;2022-12-07T15:53:10;46.10;43.38;47.71;;
72686;Laerm;61365;52.162;4.500;2022-12-07T15:55:39;47.43;43.64;62.65;;